Time,TemperatureF,DewpointF,PressureIn,WindDirection,WindDirectionDegrees,WindSpeedMPH,WindSpeedGustMPH,Humidity,HourlyPrecipIn,Conditions,Clouds,dailyrainin,SoftwareType,DateUTC
2015-08-02 00:03:00,69.0,44.0,-100.00,West,262,7.0,15.0,40,-99.99,,,-99.99,,2015-08-02 07:03:00,
2015-08-02 00:12:00,69.0,44.0,-100.00,West,262,7.0,15.0,40,-99.99,,,-99.99,,2015-08-02 07:12:00,
2015-08-02 00:23:00,69.0,44.0,-100.00,West,262,7.0,15.0,40,-99.99,,,-99.99,,2015-08-02 07:23:00,
2015-08-02 00:31:00,70.0,45.0,-100.00,NW,311,5.0,11.0,40,-99.99,,,-99.99,,2015-08-02 07:31:00,
2015-08-02 00:53:00,70.0,45.0,-100.00,NW,311,5.0,11.0,40,-99.99,,,-99.99,,2015-08-02 07:53:00,
2015-08-02 01:03:00,70.0,45.0,-100.00,NW,311,5.0,11.0,40,-99.99,,,-99.99,,2015-08-02 08:03:00,
2015-08-02 01:12:00,70.0,45.0,-100.00,NW,311,5.0,11.0,40,-99.99,,,-99.99,,2015-08-02 08:12:00,
2015-08-02 01:22:00,70.0,45.0,-100.00,NW,311,5.0,-999.0,40,-99.99,,,-99.99,,2015-08-02 08:22:00,
2015-08-02 01:31:00,68.0,42.0,-100.00,West,265,7.0,11.0,39,-99.99,,,-99.99,,2015-08-02 08:31:00,
2015-08-02 01:53:00,68.0,42.0,-100.00,West,265,7.0,11.0,39,-99.99,,,-99.99,,2015-08-02 08:53:00,
2015-08-02 02:03:00,68.0,42.0,-100.00,West,265,7.0,11.0,39,-99.99,,,-99.99,,2015-08-02 09:03:00,
2015-08-02 02:12:00,68.0,42.0,-100.00,West,265,7.0,11.0,39,-99.99,,,-99.99,,2015-08-02 09:12:00,
2015-08-02 02:23:00,68.0,42.0,-100.00,West,265,7.0,11.0,39,-99.99,,,-99.99,,2015-08-02 09:23:00,
2015-08-02 02:31:00,68.0,42.0,-100.00,WNW,296,10.0,11.0,39,-99.99,,,-99.99,,2015-08-02 09:31:00,
2015-08-02 02:53:00,68.0,42.0,-100.00,WNW,296,10.0,11.0,39,-99.99,,,-99.99,,2015-08-02 09:53:00,
2015-08-02 03:03:00,68.0,42.0,-100.00,WNW,296,10.0,11.0,39,-99.99,,,-99.99,,2015-08-02 10:03:00,
2015-08-02 03:12:00,68.0,42.0,-100.00,WNW,296,10.0,11.0,39,-99.99,,,-99.99,,2015-08-02 10:12:00,
2015-08-02 03:25:00,68.0,42.0,-100.00,WNW,296,10.0,11.0,39,-99.99,,,-99.99,,2015-08-02 10:25:00,
2015-08-02 03:31:00,69.0,43.0,-100.00,NW,307,8.0,15.0,39,-99.99,,,-99.99,,2015-08-02 10:31:00,
2015-08-02 03:54:00,69.0,43.0,-100.00,NW,307,8.0,15.0,39,-99.99,,,-99.99,,2015-08-02 10:54:00,
2015-08-02 04:03:00,69.0,43.0,-100.00,NW,307,8.0,15.0,39,-99.99,,,-99.99,,2015-08-02 11:03:00,
2015-08-02 04:13:00,69.0,43.0,-100.00,NW,307,8.0,15.0,39,-99.99,,,-99.99,,2015-08-02 11:13:00,
2015-08-02 04:23:00,69.0,43.0,-100.00,NW,307,8.0,15.0,39,-99.99,,,-99.99,,2015-08-02 11:23:00,
2015-08-02 04:31:00,67.0,40.0,-100.00,North,-9999,0.0,12.0,37,-99.99,,,-99.99,,2015-08-02 11:31:00,
2015-08-02 04:54:00,67.0,40.0,-100.00,North,-9999,0.0,12.0,37,-99.99,,,-99.99,,2015-08-02 11:54:00,
2015-08-02 05:03:00,67.0,40.0,-100.00,North,-9999,0.0,12.0,37,-99.99,,,-99.99,,2015-08-02 12:03:00,
2015-08-02 05:13:00,67.0,40.0,-100.00,North,-9999,0.0,12.0,37,-99.99,,,-99.99,,2015-08-02 12:13:00,
2015-08-02 05:23:00,67.0,40.0,-100.00,North,-9999,0.0,12.0,37,-99.99,,,-99.99,,2015-08-02 12:23:00,
2015-08-02 05:31:00,68.0,43.0,-100.00,ESE,114,4.0,7.0,41,-99.99,,,-99.99,,2015-08-02 12:31:00,
2015-08-02 05:54:00,68.0,43.0,-100.00,ESE,114,4.0,7.0,41,-99.99,,,-99.99,,2015-08-02 12:54:00,
2015-08-02 06:03:00,68.0,43.0,-100.00,ESE,114,4.0,7.0,41,-99.99,,,-99.99,,2015-08-02 13:03:00,
2015-08-02 06:13:00,68.0,43.0,-100.00,ESE,114,4.0,7.0,41,-99.99,,,-99.99,,2015-08-02 13:13:00,
2015-08-02 06:23:00,68.0,43.0,-100.00,ESE,114,4.0,7.0,41,-99.99,,,-99.99,,2015-08-02 13:23:00,
2015-08-02 06:31:00,66.0,42.0,-100.00,North,-9999,0.0,6.0,41,-99.99,,,-99.99,,2015-08-02 13:31:00,
2015-08-02 06:53:00,66.0,42.0,-100.00,North,-9999,0.0,6.0,41,-99.99,,,-99.99,,2015-08-02 13:53:00,
2015-08-02 07:03:00,66.0,42.0,-100.00,North,-9999,0.0,6.0,41,-99.99,,,-99.99,,2015-08-02 14:03:00,
2015-08-02 07:12:00,66.0,42.0,-100.00,North,-9999,0.0,6.0,41,-99.99,,,-99.99,,2015-08-02 14:12:00,
2015-08-02 07:23:00,66.0,42.0,-100.00,North,-9999,0.0,6.0,41,-99.99,,,-99.99,,2015-08-02 14:23:00,
2015-08-02 07:31:00,66.0,45.0,-100.00,North,-9999,0.0,5.0,46,-99.99,,,-99.99,,2015-08-02 14:31:00,
2015-08-02 07:53:00,66.0,45.0,-100.00,North,-9999,0.0,5.0,46,-99.99,,,-99.99,,2015-08-02 14:53:00,
2015-08-02 08:03:00,66.0,45.0,-100.00,North,-9999,0.0,5.0,46,-99.99,,,-99.99,,2015-08-02 15:03:00,
2015-08-02 08:12:00,66.0,45.0,-100.00,North,-9999,0.0,5.0,46,-99.99,,,-99.99,,2015-08-02 15:12:00,
2015-08-02 08:22:00,66.0,45.0,-100.00,North,-9999,0.0,5.0,46,-99.99,,,-99.99,,2015-08-02 15:22:00,
2015-08-02 08:54:00,65.0,45.0,-100.00,SSE,152,3.0,13.0,48,-99.99,,,-99.99,,2015-08-02 15:54:00,
2015-08-02 09:03:00,65.0,45.0,-100.00,SSE,152,3.0,13.0,48,-99.99,,,-99.99,,2015-08-02 16:03:00,
2015-08-02 09:13:00,65.0,45.0,-100.00,SSE,152,3.0,13.0,48,-99.99,,,-99.99,,2015-08-02 16:13:00,
2015-08-02 09:23:00,65.0,45.0,-100.00,SSE,152,3.0,13.0,48,-99.99,,,-99.99,,2015-08-02 16:23:00,
2015-08-02 09:31:00,68.0,45.0,-100.00,NE,44,4.0,9.0,44,-99.99,,,-99.99,,2015-08-02 16:31:00,
2015-08-02 09:54:00,68.0,45.0,-100.00,NE,44,4.0,9.0,44,-99.99,,,-99.99,,2015-08-02 16:54:00,
2015-08-02 10:04:00,68.0,45.0,-100.00,NE,44,4.0,9.0,44,-99.99,,,-99.99,,2015-08-02 17:04:00,
2015-08-02 10:13:00,68.0,45.0,-100.00,NE,44,4.0,9.0,44,-99.99,,,-99.99,,2015-08-02 17:13:00,
2015-08-02 10:23:00,68.0,45.0,-100.00,NE,44,4.0,9.0,44,-99.99,,,-99.99,,2015-08-02 17:23:00,